Terminal Aerodrome Forecast
Issued by NWS Melbourne, FL

Current Version | Previous Version | Text Only | Print | Product List | Glossary On
Versions: 1 2 3 4 5 6 7 8 9 10 11 12 13 14
000
FTUS42 KMLB 190532
TAFDAB
TAF
KDAB 190532Z 1906/2006 00000KT P6SM SCT035 BKN130
      TEMPO 1908/1911 5SM BR
     FM191400 19008KT P6SM SCT020 BKN200
     FM191800 25008KT P6SM VCTS SCT040CB BKN250
     FM200100 22003KT P6SM FEW040 BKN250=

USA.gov is the U.S. government's official web portal to all federal, state and local government web resources and services.